Time,TemperatureF,DewpointF,PressureIn,WindDirection,WindDirectionDegrees,WindSpeedMPH,WindSpeedGustMPH,Humidity,HourlyPrecipIn,Conditions,Clouds,dailyrainin,SoftwareType,DateUTC
2013-03-09 00:00:00,39.0,25.0,30.29,NNE,22,3.0,7.0,57,0.00,,,0.00,Weather View 32 v70,2013-03-09 05:00:00,
2013-03-09 00:05:00,39.0,25.0,30.29,NNE,22,4.0,7.0,57,0.00,,,0.00,Weather View 32 v70,2013-03-09 05:05:00,
2013-03-09 00:10:00,39.0,25.0,30.29,NNE,22,3.0,7.0,57,0.00,,,0.00,Weather View 32 v70,2013-03-09 05:10:00,
2013-03-09 00:15:00,39.0,25.0,30.29,NNE,22,3.0,7.0,57,0.00,,,0.00,Weather View 32 v70,2013-03-09 05:15:00,
2013-03-09 00:20:00,39.0,25.0,30.29,NNE,22,2.0,7.0,57,0.00,,,0.00,Weather View 32 v70,2013-03-09 05:20:00,
2013-03-09 00:25:00,39.0,25.0,30.29,NNE,22,0.0,7.0,57,0.00,,,0.00,Weather View 32 v70,2013-03-09 05:25:00,
2013-03-09 00:30:00,39.0,25.5,30.30,NNE,22,0.0,7.0,58,0.00,,,0.00,Weather View 32 v70,2013-03-09 05:30:00,
2013-03-09 00:35:00,39.0,25.5,30.30,NNE,22,0.0,7.0,58,0.00,,,0.00,Weather View 32 v70,2013-03-09 05:35:00,
2013-03-09 00:40:00,38.0,30.8,30.30,NNE,22,0.0,7.0,75,0.00,,,0.00,Weather View 32 v70,2013-03-09 05:40:00,
2013-03-09 00:45:00,38.0,26.1,30.30,NNE,22,1.0,6.0,62,0.00,,,0.00,Weather View 32 v70,2013-03-09 05:45:00,
2013-03-09 00:50:00,38.0,25.7,30.31,NNE,22,3.0,6.0,61,0.00,,,0.00,Weather View 32 v70,2013-03-09 05:50:00,
2013-03-09 00:55:00,38.0,25.7,30.31,NNE,22,3.0,6.0,61,0.00,,,0.00,Weather View 32 v70,2013-03-09 05:55:00,
2013-03-09 01:00:00,38.0,25.3,30.30,NNE,22,7.0,7.0,60,0.00,,,0.00,Weather View 32 v70,2013-03-09 06:00:00,
2013-03-09 01:05:00,38.0,25.3,30.30,NNE,22,5.0,7.0,60,0.00,,,0.00,Weather View 32 v70,2013-03-09 06:05:00,
2013-03-09 01:10:00,38.0,25.3,30.31,NNE,22,3.0,7.0,60,0.00,,,0.00,Weather View 32 v70,2013-03-09 06:10:00,
2013-03-09 01:15:00,39.0,25.9,30.31,NNE,22,4.0,7.0,59,0.00,,,0.00,Weather View 32 v70,2013-03-09 06:15:00,
2013-03-09 01:20:00,38.0,25.3,30.30,NNE,22,5.0,7.0,60,0.00,,,0.00,Weather View 32 v70,2013-03-09 06:20:00,
2013-03-09 01:25:00,38.0,25.3,30.30,NNE,22,2.0,7.0,60,0.00,,,0.00,Weather View 32 v70,2013-03-09 06:25:00,
2013-03-09 01:30:00,38.0,25.7,30.30,NNE,22,0.0,7.0,61,0.00,,,0.00,Weather View 32 v70,2013-03-09 06:30:00,
2013-03-09 01:35:00,38.0,26.1,30.30,NNE,22,1.0,7.0,62,0.00,,,0.00,Weather View 32 v70,2013-03-09 06:35:00,
2013-03-09 01:40:00,37.0,25.6,30.30,NNE,22,0.0,7.0,63,0.00,,,0.00,Weather View 32 v70,2013-03-09 06:40:00,
2013-03-09 01:45:00,37.0,25.9,30.30,NNE,22,4.0,7.0,64,0.00,,,0.00,Weather View 32 v70,2013-03-09 06:45:00,
2013-03-09 01:50:00,37.0,25.9,30.30,NNE,22,4.0,7.0,64,0.00,,,0.00,Weather View 32 v70,2013-03-09 06:50:00,
2013-03-09 01:55:00,37.0,25.6,30.30,NNE,22,4.0,7.0,63,0.00,,,0.00,Weather View 32 v70,2013-03-09 06:55:00,
2013-03-09 02:00:00,37.0,25.9,30.29,NNE,22,4.0,7.0,64,0.00,,,0.00,Weather View 32 v70,2013-03-09 07:00:00,
2013-03-09 02:05:00,37.0,26.3,30.29,NNE,22,5.0,7.0,65,0.00,,,0.00,Weather View 32 v70,2013-03-09 07:05:00,
2013-03-09 02:10:00,36.0,25.4,30.28,NNE,22,5.0,7.0,65,0.00,,,0.00,Weather View 32 v70,2013-03-09 07:10:00,
2013-03-09 02:15:00,36.0,25.4,30.28,NNE,22,2.0,7.0,65,0.00,,,0.00,Weather View 32 v70,2013-03-09 07:15:00,
2013-03-09 02:20:00,36.0,25.4,30.28,NNE,22,1.0,7.0,65,0.00,,,0.00,Weather View 32 v70,2013-03-09 07:20:00,
2013-03-09 02:25:00,36.0,25.7,30.28,NNE,22,2.0,7.0,66,0.00,,,0.00,Weather View 32 v70,2013-03-09 07:25:00,
2013-03-09 02:30:00,36.0,25.7,30.28,NNE,22,2.0,7.0,66,0.00,,,0.00,Weather View 32 v70,2013-03-09 07:30:00,
2013-03-09 02:35:00,36.0,26.1,30.28,NNE,22,3.0,7.0,67,0.00,,,0.00,Weather View 32 v70,2013-03-09 07:35:00,
2013-03-09 02:40:00,36.0,25.7,30.27,NNE,22,2.0,7.0,66,0.00,,,0.00,Weather View 32 v70,2013-03-09 07:40:00,
2013-03-09 02:45:00,35.0,25.5,30.27,NNE,22,0.0,7.0,68,0.00,,,0.00,Weather View 32 v70,2013-03-09 07:45:00,
2013-03-09 02:50:00,35.0,26.2,30.28,NNE,22,0.0,7.0,70,0.00,,,0.00,Weather View 32 v70,2013-03-09 07:50:00,
2013-03-09 02:55:00,34.0,25.9,30.28,NNE,22,2.0,6.0,72,0.00,,,0.00,Weather View 32 v70,2013-03-09 07:55:00,
2013-03-09 03:00:00,34.0,25.9,30.28,NNE,22,3.0,6.0,72,0.00,,,0.00,Weather View 32 v70,2013-03-09 08:00:00,
2013-03-09 03:05:00,34.0,26.9,30.28,NNE,22,0.0,6.0,75,0.00,,,0.00,Weather View 32 v70,2013-03-09 08:05:00,
2013-03-09 03:10:00,33.0,29.0,30.28,NNE,22,0.0,5.0,85,0.00,,,0.00,Weather View 32 v70,2013-03-09 08:10:00,
2013-03-09 03:15:00,33.0,30.7,30.28,NNE,22,0.0,5.0,91,0.00,,,0.00,Weather View 32 v70,2013-03-09 08:15:00,
2013-03-09 03:20:00,33.0,31.7,30.28,NNE,22,0.0,5.0,95,0.00,,,0.00,Weather View 32 v70,2013-03-09 08:20:00,
2013-03-09 03:25:00,32.0,30.2,30.28,NNE,22,0.0,5.0,93,0.00,,,0.00,Weather View 32 v70,2013-03-09 08:25:00,
2013-03-09 03:30:00,32.0,28.6,30.28,NNE,22,2.0,5.0,87,0.00,,,0.00,Weather View 32 v70,2013-03-09 08:30:00,
2013-03-09 03:35:00,33.0,28.1,30.28,NNE,22,4.0,5.0,82,0.00,,,0.00,Weather View 32 v70,2013-03-09 08:35:00,
2013-03-09 03:40:00,33.0,27.2,30.28,NNE,22,1.0,6.0,79,0.00,,,0.00,Weather View 32 v70,2013-03-09 08:40:00,
2013-03-09 03:45:00,34.0,27.2,30.28,NNE,22,1.0,6.0,76,0.00,,,0.00,Weather View 32 v70,2013-03-09 08:45:00,
2013-03-09 03:50:00,34.0,26.9,30.28,NNE,22,0.0,6.0,75,0.00,,,0.00,Weather View 32 v70,2013-03-09 08:50:00,
2013-03-09 03:55:00,34.0,31.1,30.28,NNE,22,0.0,6.0,89,0.00,,,0.00,Weather View 32 v70,2013-03-09 08:55:00,
2013-03-09 04:00:00,33.0,29.0,30.29,NNE,22,0.0,6.0,85,0.00,,,0.00,Weather View 32 v70,2013-03-09 09:00:00,
2013-03-09 04:05:00,33.0,31.7,30.29,NNE,22,0.0,6.0,95,0.00,,,0.00,Weather View 32 v70,2013-03-09 09:05:00,
2013-03-09 04:10:00,32.0,28.0,30.29,NNE,22,0.0,6.0,85,0.00,,,0.00,Weather View 32 v70,2013-03-09 09:10:00,
2013-03-09 04:15:00,32.0,30.7,30.30,NNE,22,0.0,6.0,95,0.00,,,0.00,Weather View 32 v70,2013-03-09 09:15:00,
2013-03-09 04:20:00,33.0,30.1,30.30,NNE,22,1.0,6.0,89,0.00,,,0.00,Weather View 32 v70,2013-03-09 09:20:00,
2013-03-09 04:25:00,33.0,28.4,30.29,NNE,22,0.0,6.0,83,0.00,,,0.00,Weather View 32 v70,2013-03-09 09:25:00,
2013-03-09 04:30:00,33.0,27.5,30.29,NNE,22,0.0,6.0,80,0.00,,,0.00,Weather View 32 v70,2013-03-09 09:30:00,
2013-03-09 04:35:00,33.0,27.5,30.29,NNE,22,0.0,6.0,80,0.00,,,0.00,Weather View 32 v70,2013-03-09 09:35:00,
2013-03-09 04:40:00,33.0,31.2,30.29,NNE,22,0.0,5.0,93,0.00,,,0.00,Weather View 32 v70,2013-03-09 09:40:00,
2013-03-09 04:45:00,32.0,30.7,30.30,NNE,22,0.0,3.0,95,0.00,,,0.00,Weather View 32 v70,2013-03-09 09:45:00,
2013-03-09 04:50:00,32.0,29.4,30.30,NNE,22,0.0,2.0,90,0.00,,,0.00,Weather View 32 v70,2013-03-09 09:50:00,
2013-03-09 04:55:00,32.0,28.3,30.30,NNE,22,1.0,3.0,86,0.00,,,0.00,Weather View 32 v70,2013-03-09 09:55:00,
2013-03-09 05:00:00,32.0,28.0,30.30,NNE,22,0.0,3.0,85,0.00,,,0.00,Weather View 32 v70,2013-03-09 10:00:00,
2013-03-09 05:05:00,32.0,27.4,30.30,NNE,22,2.0,3.0,83,0.00,,,0.00,Weather View 32 v70,2013-03-09 10:05:00,
2013-03-09 05:10:00,32.0,27.4,30.30,NNE,22,0.0,3.0,83,0.00,,,0.00,Weather View 32 v70,2013-03-09 10:10:00,
2013-03-09 05:15:00,32.0,27.4,30.31,NNE,22,1.0,3.0,83,0.00,,,0.00,Weather View 32 v70,2013-03-09 10:15:00,
2013-03-09 05:20:00,32.0,27.7,30.31,NNE,22,0.0,3.0,84,0.00,,,0.00,Weather View 32 v70,2013-03-09 10:20:00,
2013-03-09 05:25:00,32.0,29.4,30.31,NNE,22,0.0,3.0,90,0.00,,,0.00,Weather View 32 v70,2013-03-09 10:25:00,
2013-03-09 05:30:00,31.0,29.7,30.31,NNE,22,0.0,3.0,95,0.00,,,0.00,Weather View 32 v70,2013-03-09 10:30:00,
2013-03-09 05:35:00,31.0,29.7,30.31,NNE,22,0.0,3.0,95,0.00,,,0.00,Weather View 32 v70,2013-03-09 10:35:00,
2013-03-09 05:40:00,31.0,29.7,30.31,NNE,22,0.0,3.0,95,0.00,,,0.00,Weather View 32 v70,2013-03-09 10:40:00,
2013-03-09 05:45:00,31.0,29.7,30.31,NNE,22,0.0,3.0,95,0.00,,,0.00,Weather View 32 v70,2013-03-09 10:45:00,
2013-03-09 05:50:00,31.0,29.7,30.31,NNE,22,0.0,3.0,95,0.00,,,0.00,Weather View 32 v70,2013-03-09 10:50:00,
2013-03-09 05:55:00,30.0,28.7,30.32,NNE,22,0.0,3.0,95,0.00,,,0.00,Weather View 32 v70,2013-03-09 10:55:00,
2013-03-09 06:00:00,30.0,28.7,30.32,NNE,22,0.0,3.0,95,0.00,,,0.00,Weather View 32 v70,2013-03-09 11:00:00,
2013-03-09 06:05:00,31.0,28.7,30.32,NNE,22,0.0,3.0,91,0.00,,,0.00,Weather View 32 v70,2013-03-09 11:05:00,
2013-03-09 06:10:00,32.0,30.5,30.32,NNE,22,0.0,3.0,94,0.00,,,0.00,Weather View 32 v70,2013-03-09 11:10:00,
2013-03-09 06:15:00,31.0,29.7,30.32,NNE,22,0.0,2.0,95,0.00,,,0.00,Weather View 32 v70,2013-03-09 11:15:00,
2013-03-09 06:20:00,31.0,29.7,30.32,NNE,22,0.0,2.0,95,0.00,,,0.00,Weather View 32 v70,2013-03-09 11:20:00,
2013-03-09 06:25:00,31.0,29.7,30.32,NNE,22,0.0,0.0,95,0.00,,,0.00,Weather View 32 v70,2013-03-09 11:25:00,
2013-03-09 06:30:00,31.0,29.7,30.32,NNE,22,0.0,0.0,95,0.00,,,0.00,Weather View 32 v70,2013-03-09 11:30:00,
2013-03-09 06:35:00,30.0,28.7,30.33,NNE,22,0.0,0.0,95,0.00,,,0.00,Weather View 32 v70,2013-03-09 11:35:00,
2013-03-09 06:40:00,30.0,28.7,30.33,NNE,22,0.0,0.0,95,0.00,,,0.00,Weather View 32 v70,2013-03-09 11:40:00,
2013-03-09 06:45:00,31.0,29.7,30.32,NNE,22,2.0,3.0,95,0.00,,,0.00,Weather View 32 v70,2013-03-09 11:45:00,
2013-03-09 06:50:00,31.0,29.7,30.32,NNE,22,2.0,3.0,95,0.00,,,0.00,Weather View 32 v70,2013-03-09 11:50:00,
2013-03-09 06:55:00,31.0,29.7,30.33,NNE,22,0.0,3.0,95,0.00,,,0.00,Weather View 32 v70,2013-03-09 11:55:00,
2013-03-09 07:00:00,31.0,29.7,30.33,NNE,22,0.0,3.0,95,0.00,,,0.00,Weather View 32 v70,2013-03-09 12:00:00,
2013-03-09 07:05:00,31.0,29.7,30.33,NNE,22,3.0,3.0,95,0.00,,,0.00,Weather View 32 v70,2013-03-09 12:05:00,
2013-03-09 07:10:00,31.0,29.2,30.33,NNE,22,3.0,4.0,93,0.00,,,0.00,Weather View 32 v70,2013-03-09 12:10:00,
2013-03-09 07:15:00,32.0,29.7,30.33,NNE,22,2.0,4.0,91,0.00,,,0.00,Weather View 32 v70,2013-03-09 12:15:00,
2013-03-09 07:20:00,32.0,29.4,30.33,NNE,22,2.0,4.0,90,0.00,,,0.00,Weather View 32 v70,2013-03-09 12:20:00,
2013-03-09 07:25:00,32.0,29.4,30.34,NNE,22,0.0,4.0,90,0.00,,,0.00,Weather View 32 v70,2013-03-09 12:25:00,
2013-03-09 07:30:00,32.0,29.9,30.34,NNE,22,0.0,4.0,92,0.00,,,0.00,Weather View 32 v70,2013-03-09 12:30:00,
2013-03-09 07:36:00,33.0,31.2,30.33,NNE,22,0.0,4.0,93,0.00,,,0.00,Weather View 32 v70,2013-03-09 12:36:00,
2013-03-09 07:41:00,33.0,30.7,30.33,NNE,22,0.0,4.0,91,0.00,,,0.00,Weather View 32 v70,2013-03-09 12:41:00,
2013-03-09 07:46:00,34.0,30.5,30.33,NNE,22,2.0,4.0,87,0.00,,,0.00,Weather View 32 v70,2013-03-09 12:46:00,
2013-03-09 07:51:00,36.0,31.6,30.33,NNE,22,3.0,5.0,84,0.00,,,0.00,Weather View 32 v70,2013-03-09 12:51:00,
2013-03-09 07:56:00,37.0,30.8,30.33,NNE,22,3.0,5.0,78,0.00,,,0.00,Weather View 32 v70,2013-03-09 12:56:00,
2013-03-09 08:01:00,39.0,31.1,30.33,NNE,22,3.0,6.0,73,0.00,,,0.00,Weather View 32 v70,2013-03-09 13:01:00,
2013-03-09 08:06:00,40.0,30.3,30.32,NNE,22,5.0,6.0,68,0.00,,,0.00,Weather View 32 v70,2013-03-09 13:06:00,
2013-03-09 08:11:00,41.0,29.4,30.32,NNE,22,6.0,9.0,63,0.00,,,0.00,Weather View 32 v70,2013-03-09 13:11:00,
2013-03-09 08:16:00,42.0,30.3,30.31,North,360,6.0,9.0,63,0.00,,,0.00,Weather View 32 v70,2013-03-09 13:16:00,
2013-03-09 08:21:00,42.0,29.1,30.31,North,360,6.0,9.0,60,0.00,,,0.00,Weather View 32 v70,2013-03-09 13:21:00,
2013-03-09 08:26:00,44.0,29.7,30.31,NNE,22,0.0,9.0,57,0.00,,,0.00,Weather View 32 v70,2013-03-09 13:26:00,
2013-03-09 08:31:00,44.0,28.8,30.31,NE,45,3.0,10.0,55,0.00,,,0.00,Weather View 32 v70,2013-03-09 13:31:00,
2013-03-09 08:36:00,45.0,29.3,30.30,NE,45,2.0,10.0,54,0.00,,,0.00,Weather View 32 v70,2013-03-09 13:36:00,
2013-03-09 08:41:00,46.0,29.3,30.30,NE,45,7.0,10.0,52,0.00,,,0.00,Weather View 32 v70,2013-03-09 13:41:00,
2013-03-09 08:46:00,46.0,27.9,30.30,NE,45,7.0,12.0,49,0.00,,,0.00,Weather View 32 v70,2013-03-09 13:46:00,
2013-03-09 08:51:00,46.0,28.9,30.30,NE,45,5.0,12.0,51,0.00,,,0.00,Weather View 32 v70,2013-03-09 13:51:00,
2013-03-09 08:56:00,46.0,27.9,30.31,ENE,67,6.0,12.0,49,0.00,,,0.00,Weather View 32 v70,2013-03-09 13:56:00,
2013-03-09 09:01:00,47.0,28.8,30.31,ENE,67,6.0,12.0,49,0.00,,,0.00,Weather View 32 v70,2013-03-09 14:01:00,
2013-03-09 09:06:00,47.0,28.3,30.31,ENE,67,2.0,12.0,48,0.00,,,0.00,Weather View 32 v70,2013-03-09 14:06:00,
2013-03-09 09:11:00,48.0,29.2,30.31,NE,45,4.0,12.0,48,0.00,,,0.00,Weather View 32 v70,2013-03-09 14:11:00,
2013-03-09 09:16:00,48.0,27.6,30.31,East,90,1.0,12.0,45,0.00,,,0.00,Weather View 32 v70,2013-03-09 14:16:00,
2013-03-09 09:21:00,48.0,27.6,30.31,ENE,67,6.0,12.0,45,0.00,,,0.00,Weather View 32 v70,2013-03-09 14:21:00,
2013-03-09 09:26:00,49.0,28.5,30.31,ENE,67,6.0,12.0,45,0.00,,,0.00,Weather View 32 v70,2013-03-09 14:26:00,
2013-03-09 09:31:00,48.0,27.1,30.31,NE,45,7.0,12.0,44,0.00,,,0.00,Weather View 32 v70,2013-03-09 14:31:00,
2013-03-09 09:36:00,49.0,28.0,30.31,ENE,67,7.0,12.0,44,0.00,,,0.00,Weather View 32 v70,2013-03-09 14:36:00,
2013-03-09 09:41:00,49.0,28.0,30.31,ENE,67,8.0,12.0,44,0.00,,,0.00,Weather View 32 v70,2013-03-09 14:41:00,
2013-03-09 09:46:00,49.0,27.4,30.31,NE,45,1.0,12.0,43,0.00,,,0.00,Weather View 32 v70,2013-03-09 14:46:00,
2013-03-09 09:51:00,49.0,27.4,30.31,East,90,4.0,12.0,43,0.00,,,0.00,Weather View 32 v70,2013-03-09 14:51:00,
2013-03-09 09:56:00,50.0,27.2,30.30,East,90,0.0,12.0,41,0.00,,,0.00,Weather View 32 v70,2013-03-09 14:56:00,
2013-03-09 10:01:00,50.0,26.0,30.30,East,90,1.0,12.0,39,0.00,,,0.00,Weather View 32 v70,2013-03-09 15:01:00,
2013-03-09 10:06:00,51.0,27.5,30.30,ENE,67,4.0,12.0,40,0.00,,,0.00,Weather View 32 v70,2013-03-09 15:06:00,
2013-03-09 10:11:00,51.0,27.5,30.30,ENE,67,5.0,12.0,40,0.00,,,0.00,Weather View 32 v70,2013-03-09 15:11:00,
2013-03-09 10:16:00,51.0,26.9,30.30,ENE,67,9.0,12.0,39,0.00,,,0.00,Weather View 32 v70,2013-03-09 15:16:00,
2013-03-09 10:21:00,51.0,27.5,30.30,ENE,67,2.0,12.0,40,0.00,,,0.00,Weather View 32 v70,2013-03-09 15:21:00,
2013-03-09 10:26:00,51.0,27.5,30.29,ENE,67,6.0,12.0,40,0.00,,,0.00,Weather View 32 v70,2013-03-09 15:26:00,
2013-03-09 10:31:00,51.0,27.5,30.29,East,90,6.0,12.0,40,0.00,,,0.00,Weather View 32 v70,2013-03-09 15:31:00,
2013-03-09 10:36:00,53.0,28.0,30.29,East,90,3.0,12.0,38,0.00,,,0.00,Weather View 32 v70,2013-03-09 15:36:00,
2013-03-09 10:41:00,52.0,27.1,30.29,NE,45,0.0,12.0,38,0.00,,,0.00,Weather View 32 v70,2013-03-09 15:41:00,
2013-03-09 10:46:00,52.0,28.4,30.29,NNE,22,2.0,12.0,40,0.00,,,0.00,Weather View 32 v70,2013-03-09 15:46:00,
2013-03-09 10:51:00,53.0,27.4,30.29,NE,45,6.0,12.0,37,0.00,,,0.00,Weather View 32 v70,2013-03-09 15:51:00,
2013-03-09 10:56:00,53.0,28.0,30.28,NE,45,3.0,12.0,38,0.00,,,0.00,Weather View 32 v70,2013-03-09 15:56:00,
2013-03-09 11:01:00,52.0,27.8,30.28,NE,45,0.0,12.0,39,0.00,,,0.00,Weather View 32 v70,2013-03-09 16:01:00,
2013-03-09 11:06:00,53.0,28.7,30.29,NNE,22,7.0,12.0,39,0.00,,,0.00,Weather View 32 v70,2013-03-09 16:06:00,
2013-03-09 11:11:00,53.0,29.3,30.29,NE,45,2.0,12.0,40,0.00,,,0.00,Weather View 32 v70,2013-03-09 16:11:00,
2013-03-09 11:16:00,53.0,28.7,30.28,ENE,67,9.0,12.0,39,0.00,,,0.00,Weather View 32 v70,2013-03-09 16:16:00,
2013-03-09 11:21:00,53.0,29.3,30.28,East,90,2.0,12.0,40,0.00,,,0.00,Weather View 32 v70,2013-03-09 16:21:00,
2013-03-09 11:26:00,53.0,28.0,30.28,NE,45,4.0,12.0,38,0.00,,,0.00,Weather View 32 v70,2013-03-09 16:26:00,
2013-03-09 11:31:00,53.0,28.7,30.28,NE,45,4.0,12.0,39,0.00,,,0.00,Weather View 32 v70,2013-03-09 16:31:00,
2013-03-09 11:36:00,53.0,29.3,30.28,North,360,4.0,12.0,40,0.00,,,0.00,Weather View 32 v70,2013-03-09 16:36:00,
2013-03-09 11:41:00,54.0,29.6,30.28,NE,45,0.0,12.0,39,0.00,,,0.00,Weather View 32 v70,2013-03-09 16:41:00,
2013-03-09 11:46:00,55.0,29.2,30.26,SE,135,5.0,11.0,37,0.00,,,0.00,Weather View 32 v70,2013-03-09 16:46:00,
2013-03-09 11:51:00,54.0,28.3,30.26,ENE,67,6.0,11.0,37,0.00,,,0.00,Weather View 32 v70,2013-03-09 16:51:00,
2013-03-09 11:56:00,55.0,30.4,30.26,East,90,0.0,11.0,39,0.00,,,0.00,Weather View 32 v70,2013-03-09 16:56:00,
2013-03-09 12:01:00,56.0,29.4,30.26,ESE,112,0.0,11.0,36,0.00,,,0.00,Weather View 32 v70,2013-03-09 17:01:00,
2013-03-09 12:06:00,55.0,29.2,30.26,West,270,4.0,11.0,37,0.00,,,0.00,Weather View 32 v70,2013-03-09 17:06:00,
2013-03-09 12:11:00,56.0,29.4,30.26,NE,45,9.0,12.0,36,0.00,,,0.00,Weather View 32 v70,2013-03-09 17:11:00,
2013-03-09 12:16:00,56.0,30.0,30.25,ENE,67,1.0,12.0,37,0.00,,,0.00,Weather View 32 v70,2013-03-09 17:16:00,
2013-03-09 12:21:00,56.0,30.0,30.25,NW,315,0.0,12.0,37,0.00,,,0.00,Weather View 32 v70,2013-03-09 17:21:00,
2013-03-09 12:26:00,57.0,30.3,30.24,West,270,0.0,12.0,36,0.00,,,0.00,Weather View 32 v70,2013-03-09 17:26:00,
2013-03-09 12:31:00,57.0,30.9,30.24,NW,315,2.0,12.0,37,0.00,,,0.00,Weather View 32 v70,2013-03-09 17:31:00,
2013-03-09 12:36:00,57.0,29.6,30.24,NE,45,6.0,12.0,35,0.00,,,0.00,Weather View 32 v70,2013-03-09 17:36:00,
2013-03-09 12:41:00,56.0,30.7,30.24,NE,45,1.0,12.0,38,0.00,,,0.00,Weather View 32 v70,2013-03-09 17:41:00,
2013-03-09 12:46:00,56.0,29.4,30.24,NW,315,6.0,12.0,36,0.00,,,0.00,Weather View 32 v70,2013-03-09 17:46:00,
2013-03-09 12:51:00,57.0,30.3,30.24,NW,315,1.0,12.0,36,0.00,,,0.00,Weather View 32 v70,2013-03-09 17:51:00,
2013-03-09 12:56:00,58.0,30.4,30.23,NNE,22,6.0,12.0,35,0.00,,,0.00,Weather View 32 v70,2013-03-09 17:56:00,
2013-03-09 13:01:00,58.0,31.1,30.23,NE,45,6.0,12.0,36,0.00,,,0.00,Weather View 32 v70,2013-03-09 18:01:00,
2013-03-09 13:06:00,58.0,30.4,30.22,NNW,337,1.0,12.0,35,0.00,,,0.00,Weather View 32 v70,2013-03-09 18:06:00,
2013-03-09 13:11:00,57.0,30.3,30.22,WNW,292,6.0,11.0,36,0.00,,,0.00,Weather View 32 v70,2013-03-09 18:11:00,
2013-03-09 13:16:00,58.0,31.1,30.22,West,270,2.0,11.0,36,0.00,,,0.00,Weather View 32 v70,2013-03-09 18:16:00,
2013-03-09 13:21:00,59.0,32.0,30.22,NE,45,0.0,11.0,36,0.00,,,0.00,Weather View 32 v70,2013-03-09 18:21:00,
2013-03-09 13:26:00,60.0,30.8,30.21,ENE,67,0.0,11.0,33,0.00,,,0.00,Weather View 32 v70,2013-03-09 18:26:00,
2013-03-09 13:31:00,60.0,30.8,30.21,WNW,292,4.0,11.0,33,0.00,,,0.00,Weather View 32 v70,2013-03-09 18:31:00,
2013-03-09 13:36:00,60.0,29.2,30.21,ENE,67,8.0,11.0,31,0.00,,,0.00,Weather View 32 v70,2013-03-09 18:36:00,
2013-03-09 13:41:00,60.0,29.2,30.21,ENE,67,6.0,11.0,31,0.00,,,0.00,Weather View 32 v70,2013-03-09 18:41:00,
2013-03-09 13:46:00,60.0,29.2,30.20,ENE,67,5.0,11.0,31,0.00,,,0.00,Weather View 32 v70,2013-03-09 18:46:00,
2013-03-09 13:51:00,59.0,29.9,30.20,NE,45,6.0,11.0,33,0.00,,,0.00,Weather View 32 v70,2013-03-09 18:51:00,
2013-03-09 13:56:00,60.0,30.8,30.19,North,360,6.0,11.0,33,0.00,,,0.00,Weather View 32 v70,2013-03-09 18:56:00,
2013-03-09 14:01:00,59.0,30.6,30.19,NW,315,2.0,11.0,34,0.00,,,0.00,Weather View 32 v70,2013-03-09 19:01:00,
2013-03-09 14:06:00,60.0,30.8,30.19,SW,225,0.0,10.0,33,0.00,,,0.00,Weather View 32 v70,2013-03-09 19:06:00,
2013-03-09 14:11:00,60.0,30.0,30.19,East,90,1.0,10.0,32,0.00,,,0.00,Weather View 32 v70,2013-03-09 19:11:00,
2013-03-09 14:16:00,60.0,30.0,30.19,WNW,292,5.0,10.0,32,0.00,,,0.00,Weather View 32 v70,2013-03-09 19:16:00,
2013-03-09 14:21:00,60.0,30.0,30.19,North,360,6.0,10.0,32,0.00,,,0.00,Weather View 32 v70,2013-03-09 19:21:00,
2013-03-09 14:26:00,60.0,30.0,30.19,NW,315,6.0,10.0,32,0.00,,,0.00,Weather View 32 v70,2013-03-09 19:26:00,
2013-03-09 14:31:00,60.0,30.8,30.19,NNW,337,6.0,10.0,33,0.00,,,0.00,Weather View 32 v70,2013-03-09 19:31:00,
2013-03-09 14:36:00,60.0,30.8,30.18,West,270,2.0,10.0,33,0.00,,,0.00,Weather View 32 v70,2013-03-09 19:36:00,
2013-03-09 14:41:00,60.0,32.2,30.18,NW,315,0.0,10.0,35,0.00,,,0.00,Weather View 32 v70,2013-03-09 19:41:00,
2013-03-09 14:46:00,62.0,30.1,30.17,North,360,0.0,10.0,30,0.00,,,0.00,Weather View 32 v70,2013-03-09 19:46:00,
2013-03-09 14:51:00,62.0,31.7,30.17,NNW,337,4.0,10.0,32,0.00,,,0.00,Weather View 32 v70,2013-03-09 19:51:00,
2013-03-09 14:56:00,62.0,29.3,30.17,NE,45,3.0,10.0,29,0.00,,,0.00,Weather View 32 v70,2013-03-09 19:56:00,
2013-03-09 15:01:00,62.0,31.0,30.17,NE,45,3.0,10.0,31,0.00,,,0.00,Weather View 32 v70,2013-03-09 20:01:00,
2013-03-09 15:06:00,62.0,29.3,30.17,East,90,1.0,10.0,29,0.00,,,0.00,Weather View 32 v70,2013-03-09 20:06:00,
2013-03-09 15:12:00,63.0,30.2,30.17,South,180,3.0,10.0,29,0.00,,,0.00,Weather View 32 v70,2013-03-09 20:12:00,
2013-03-09 15:17:00,63.0,31.0,30.17,SW,225,5.0,10.0,30,0.00,,,0.00,Weather View 32 v70,2013-03-09 20:17:00,
2013-03-09 15:22:00,63.0,31.0,30.17,WSW,247,0.0,10.0,30,0.00,,,0.00,Weather View 32 v70,2013-03-09 20:22:00,
2013-03-09 15:27:00,63.0,31.0,30.16,SW,225,5.0,9.0,30,0.00,,,0.00,Weather View 32 v70,2013-03-09 20:27:00,
2013-03-09 15:32:00,64.0,32.7,30.16,SW,225,0.0,8.0,31,0.00,,,0.00,Weather View 32 v70,2013-03-09 20:32:00,
2013-03-09 15:37:00,65.0,30.1,30.15,SSW,202,1.0,8.0,27,0.00,,,0.00,Weather View 32 v70,2013-03-09 20:37:00,
2013-03-09 15:42:00,64.0,29.3,30.15,SSW,202,0.0,8.0,27,0.00,,,0.00,Weather View 32 v70,2013-03-09 20:42:00,
2013-03-09 15:47:00,63.0,28.4,30.15,ESE,112,5.0,8.0,27,0.00,,,0.00,Weather View 32 v70,2013-03-09 20:47:00,
2013-03-09 15:52:00,63.0,29.3,30.15,ESE,112,0.0,8.0,28,0.00,,,0.00,Weather View 32 v70,2013-03-09 20:52:00,
2013-03-09 15:57:00,64.0,31.0,30.14,SW,225,1.0,7.0,29,0.00,,,0.00,Weather View 32 v70,2013-03-09 20:57:00,
2013-03-09 16:02:00,64.0,31.9,30.14,WNW,292,3.0,7.0,30,0.00,,,0.00,Weather View 32 v70,2013-03-09 21:02:00,
2013-03-09 16:07:00,65.0,31.0,30.14,NNW,337,0.0,7.0,28,0.00,,,0.00,Weather View 32 v70,2013-03-09 21:07:00,
2013-03-09 16:12:00,65.0,29.2,30.14,NNW,337,0.0,7.0,26,0.00,,,0.00,Weather View 32 v70,2013-03-09 21:12:00,
2013-03-09 16:17:00,65.0,30.1,30.14,SSW,202,5.0,7.0,27,0.00,,,0.00,Weather View 32 v70,2013-03-09 21:17:00,
2013-03-09 16:22:00,65.0,29.2,30.14,South,180,3.0,7.0,26,0.00,,,0.00,Weather View 32 v70,2013-03-09 21:22:00,
2013-03-09 16:27:00,65.0,30.1,30.14,WNW,292,3.0,7.0,27,0.00,,,0.00,Weather View 32 v70,2013-03-09 21:27:00,
2013-03-09 16:32:00,64.0,30.2,30.14,West,270,0.0,7.0,28,0.00,,,0.00,Weather View 32 v70,2013-03-09 21:32:00,
2013-03-09 16:37:00,65.0,31.9,30.14,NW,315,1.0,7.0,29,0.00,,,0.00,Weather View 32 v70,2013-03-09 21:37:00,
2013-03-09 16:42:00,64.0,29.3,30.14,North,360,5.0,7.0,27,0.00,,,0.00,Weather View 32 v70,2013-03-09 21:42:00,
2013-03-09 16:47:00,64.0,28.4,30.15,North,360,0.0,7.0,26,0.00,,,0.00,Weather View 32 v70,2013-03-09 21:47:00,
2013-03-09 16:52:00,64.0,30.2,30.15,North,360,2.0,7.0,28,0.00,,,0.00,Weather View 32 v70,2013-03-09 21:52:00,
2013-03-09 16:57:00,64.0,28.4,30.15,North,360,0.0,7.0,26,0.00,,,0.00,Weather View 32 v70,2013-03-09 21:57:00,
2013-03-09 17:02:00,64.0,29.3,30.15,North,360,2.0,7.0,27,0.00,,,0.00,Weather View 32 v70,2013-03-09 22:02:00,
2013-03-09 17:07:00,64.0,29.3,30.15,North,360,0.0,7.0,27,0.00,,,0.00,Weather View 32 v70,2013-03-09 22:07:00,
2013-03-09 17:12:00,63.0,30.2,30.15,North,360,2.0,7.0,29,0.00,,,0.00,Weather View 32 v70,2013-03-09 22:12:00,
2013-03-09 17:17:00,63.0,31.0,30.15,North,360,2.0,7.0,30,0.00,,,0.00,Weather View 32 v70,2013-03-09 22:17:00,
2013-03-09 17:22:00,62.0,29.3,30.15,North,360,2.0,6.0,29,0.00,,,0.00,Weather View 32 v70,2013-03-09 22:22:00,
2013-03-09 17:27:00,63.0,29.3,30.15,North,360,0.0,6.0,28,0.00,,,0.00,Weather View 32 v70,2013-03-09 22:27:00,
2013-03-09 17:32:00,63.0,28.4,30.15,North,360,2.0,6.0,27,0.00,,,0.00,Weather View 32 v70,2013-03-09 22:32:00,
2013-03-09 17:37:00,63.0,29.3,30.15,North,360,0.0,6.0,28,0.00,,,0.00,Weather View 32 v70,2013-03-09 22:37:00,
2013-03-09 17:42:00,62.0,29.3,30.15,North,360,0.0,6.0,29,0.00,,,0.00,Weather View 32 v70,2013-03-09 22:42:00,
2013-03-09 17:47:00,62.0,29.3,30.16,North,360,0.0,5.0,29,0.00,,,0.00,Weather View 32 v70,2013-03-09 22:47:00,
2013-03-09 17:52:00,61.0,28.4,30.16,North,360,0.0,5.0,29,0.00,,,0.00,Weather View 32 v70,2013-03-09 22:52:00,
2013-03-09 17:57:00,61.0,28.4,30.17,North,360,0.0,5.0,29,0.00,,,0.00,Weather View 32 v70,2013-03-09 22:57:00,
2013-03-09 18:02:00,61.0,29.3,30.17,North,360,0.0,5.0,30,0.00,,,0.00,Weather View 32 v70,2013-03-09 23:02:00,
2013-03-09 18:07:00,61.0,29.3,30.17,North,360,0.0,5.0,30,0.00,,,0.00,Weather View 32 v70,2013-03-09 23:07:00,
2013-03-09 18:12:00,60.0,29.2,30.17,North,360,0.0,5.0,31,0.00,,,0.00,Weather View 32 v70,2013-03-09 23:12:00,
2013-03-09 18:17:00,59.0,28.3,30.18,North,360,0.0,5.0,31,0.00,,,0.00,Weather View 32 v70,2013-03-09 23:17:00,
2013-03-09 18:22:00,58.0,28.2,30.18,North,360,0.0,3.0,32,0.00,,,0.00,Weather View 32 v70,2013-03-09 23:22:00,
2013-03-09 18:27:00,58.0,29.0,30.18,North,360,0.0,2.0,33,0.00,,,0.00,Weather View 32 v70,2013-03-09 23:27:00,
2013-03-09 18:32:00,57.0,28.9,30.18,North,360,0.0,2.0,34,0.00,,,0.00,Weather View 32 v70,2013-03-09 23:32:00,
2013-03-09 18:37:00,56.0,28.7,30.19,North,360,0.0,2.0,35,0.00,,,0.00,Weather View 32 v70,2013-03-09 23:37:00,
2013-03-09 18:42:00,55.0,28.5,30.19,North,360,0.0,0.0,36,0.00,,,0.00,Weather View 32 v70,2013-03-09 23:42:00,
2013-03-09 18:47:00,55.0,29.2,30.19,North,360,0.0,0.0,37,0.00,,,0.00,Weather View 32 v70,2013-03-09 23:47:00,
2013-03-09 18:52:00,54.0,28.9,30.19,North,360,0.0,0.0,38,0.00,,,0.00,Weather View 32 v70,2013-03-09 23:52:00,
2013-03-09 18:57:00,54.0,30.2,30.20,North,360,0.0,0.0,40,0.00,,,0.00,Weather View 32 v70,2013-03-09 23:57:00,
2013-03-09 19:02:00,53.0,29.3,30.20,North,360,0.0,0.0,40,0.00,,,0.00,Weather View 32 v70,2013-03-10 00:02:00,
2013-03-09 19:07:00,53.0,29.9,30.20,North,360,0.0,0.0,41,0.00,,,0.00,Weather View 32 v70,2013-03-10 00:07:00,
2013-03-09 19:12:00,52.0,29.6,30.20,North,360,0.0,0.0,42,0.00,,,0.00,Weather View 32 v70,2013-03-10 00:12:00,
2013-03-09 19:17:00,51.0,29.8,30.21,North,360,0.0,0.0,44,0.00,,,0.00,Weather View 32 v70,2013-03-10 00:17:00,
2013-03-09 19:22:00,51.0,30.4,30.21,North,360,0.0,0.0,45,0.00,,,0.00,Weather View 32 v70,2013-03-10 00:22:00,
2013-03-09 19:27:00,51.0,29.8,30.21,North,360,0.0,0.0,44,0.00,,,0.00,Weather View 32 v70,2013-03-10 00:27:00,
2013-03-09 19:32:00,51.0,30.4,30.21,North,360,0.0,0.0,45,0.00,,,0.00,Weather View 32 v70,2013-03-10 00:32:00,
2013-03-09 19:37:00,51.0,30.9,30.21,North,360,0.0,0.0,46,0.00,,,0.00,Weather View 32 v70,2013-03-10 00:37:00,
2013-03-09 19:42:00,51.0,31.4,30.21,North,360,0.0,0.0,47,0.00,,,0.00,Weather View 32 v70,2013-03-10 00:42:00,
2013-03-09 19:47:00,51.0,31.4,30.21,North,360,0.0,0.0,47,0.00,,,0.00,Weather View 32 v70,2013-03-10 00:47:00,
2013-03-09 19:52:00,51.0,31.4,30.21,North,360,0.0,0.0,47,0.00,,,0.00,Weather View 32 v70,2013-03-10 00:52:00,
2013-03-09 19:57:00,50.0,30.5,30.21,North,360,0.0,0.0,47,0.00,,,0.00,Weather View 32 v70,2013-03-10 00:57:00,
2013-03-09 20:02:00,50.0,31.0,30.21,North,360,0.0,0.0,48,0.00,,,0.00,Weather View 32 v70,2013-03-10 01:02:00,
2013-03-09 20:07:00,50.0,33.0,30.21,North,360,0.0,0.0,52,0.00,,,0.00,Weather View 32 v70,2013-03-10 01:07:00,
2013-03-09 20:12:00,49.0,32.6,30.21,North,360,0.0,0.0,53,0.00,,,0.00,Weather View 32 v70,2013-03-10 01:12:00,
2013-03-09 20:17:00,49.0,31.1,30.22,North,360,0.0,0.0,50,0.00,,,0.00,Weather View 32 v70,2013-03-10 01:17:00,
2013-03-09 20:22:00,49.0,30.6,30.22,North,360,0.0,0.0,49,0.00,,,0.00,Weather View 32 v70,2013-03-10 01:22:00,
2013-03-09 20:27:00,48.0,30.2,30.22,North,360,0.0,0.0,50,0.00,,,0.00,Weather View 32 v70,2013-03-10 01:27:00,
2013-03-09 20:32:00,48.0,31.2,30.22,North,360,0.0,0.0,52,0.00,,,0.00,Weather View 32 v70,2013-03-10 01:32:00,
2013-03-09 20:37:00,48.0,31.7,30.22,North,360,0.0,0.0,53,0.00,,,0.00,Weather View 32 v70,2013-03-10 01:37:00,
2013-03-09 20:42:00,47.0,32.1,30.22,North,360,0.0,0.0,56,0.00,,,0.00,Weather View 32 v70,2013-03-10 01:42:00,
2013-03-09 20:47:00,47.0,32.1,30.23,North,360,0.0,0.0,56,0.00,,,0.00,Weather View 32 v70,2013-03-10 01:47:00,
2013-03-09 20:52:00,46.0,31.6,30.23,North,360,0.0,0.0,57,0.00,,,0.00,Weather View 32 v70,2013-03-10 01:52:00,
2013-03-09 20:57:00,46.0,32.0,30.23,North,360,0.0,0.0,58,0.00,,,0.00,Weather View 32 v70,2013-03-10 01:57:00,
2013-03-09 21:02:00,46.0,32.5,30.23,North,360,0.0,0.0,59,0.00,,,0.00,Weather View 32 v70,2013-03-10 02:02:00,
2013-03-09 21:07:00,46.0,32.5,30.23,North,360,0.0,0.0,59,0.00,,,0.00,Weather View 32 v70,2013-03-10 02:07:00,
2013-03-09 21:12:00,45.0,31.5,30.23,North,360,0.0,0.0,59,0.00,,,0.00,Weather View 32 v70,2013-03-10 02:12:00,
2013-03-09 21:17:00,45.0,32.7,30.24,North,360,0.0,0.0,62,0.00,,,0.00,Weather View 32 v70,2013-03-10 02:17:00,
2013-03-09 21:22:00,45.0,31.5,30.24,North,360,0.0,0.0,59,0.00,,,0.00,Weather View 32 v70,2013-03-10 02:22:00,
2013-03-09 21:27:00,45.0,31.5,30.23,North,360,0.0,0.0,59,0.00,,,0.00,Weather View 32 v70,2013-03-10 02:27:00,
2013-03-09 21:32:00,45.0,33.5,30.23,North,360,0.0,0.0,64,0.00,,,0.00,Weather View 32 v70,2013-03-10 02:32:00,
2013-03-09 21:37:00,45.0,33.9,30.24,North,360,0.0,0.0,65,0.00,,,0.00,Weather View 32 v70,2013-03-10 02:37:00,
2013-03-09 21:42:00,44.0,33.7,30.24,North,360,0.0,0.0,67,0.00,,,0.00,Weather View 32 v70,2013-03-10 02:42:00,
2013-03-09 21:47:00,44.0,33.7,30.25,North,360,0.0,0.0,67,0.00,,,0.00,Weather View 32 v70,2013-03-10 02:47:00,
2013-03-09 21:52:00,43.0,33.9,30.25,North,360,0.0,0.0,70,0.00,,,0.00,Weather View 32 v70,2013-03-10 02:52:00,
2013-03-09 21:57:00,43.0,35.3,30.26,North,360,0.0,0.0,74,0.00,,,0.00,Weather View 32 v70,2013-03-10 02:57:00,
2013-03-09 22:02:00,42.0,36.9,30.26,North,360,0.0,0.0,82,0.00,,,0.00,Weather View 32 v70,2013-03-10 03:02:00,
2013-03-09 22:07:00,42.0,33.6,30.26,North,360,0.0,0.0,72,0.00,,,0.00,Weather View 32 v70,2013-03-10 03:07:00,
2013-03-09 22:12:00,42.0,34.0,30.26,North,360,0.0,0.0,73,0.00,,,0.00,Weather View 32 v70,2013-03-10 03:12:00,
2013-03-09 22:17:00,42.0,34.0,30.26,North,360,0.0,0.0,73,0.00,,,0.00,Weather View 32 v70,2013-03-10 03:17:00,
2013-03-09 22:22:00,42.0,34.0,30.26,North,360,0.0,0.0,73,0.00,,,0.00,Weather View 32 v70,2013-03-10 03:22:00,
2013-03-09 22:27:00,43.0,33.9,30.26,North,360,0.0,3.0,70,0.00,,,0.00,Weather View 32 v70,2013-03-10 03:27:00,
2013-03-09 22:32:00,42.0,33.3,30.26,North,360,0.0,3.0,71,0.00,,,0.00,Weather View 32 v70,2013-03-10 03:32:00,
2013-03-09 22:37:00,42.0,33.6,30.26,North,360,0.0,3.0,72,0.00,,,0.00,Weather View 32 v70,2013-03-10 03:37:00,
2013-03-09 22:42:00,42.0,34.0,30.26,North,360,0.0,3.0,73,0.00,,,0.00,Weather View 32 v70,2013-03-10 03:42:00,
2013-03-09 22:47:00,41.0,32.7,30.26,North,360,0.0,3.0,72,0.00,,,0.00,Weather View 32 v70,2013-03-10 03:47:00,
2013-03-09 22:52:00,41.0,34.0,30.26,North,360,0.0,3.0,76,0.00,,,0.00,Weather View 32 v70,2013-03-10 03:52:00,
2013-03-09 22:57:00,41.0,33.7,30.27,North,360,0.0,3.0,75,0.00,,,0.00,Weather View 32 v70,2013-03-10 03:57:00,
2013-03-09 23:02:00,41.0,34.3,30.27,North,360,0.0,3.0,77,0.00,,,0.00,Weather View 32 v70,2013-03-10 04:02:00,
2013-03-09 23:07:00,41.0,34.7,30.27,North,360,0.0,3.0,78,0.00,,,0.00,Weather View 32 v70,2013-03-10 04:07:00,
2013-03-09 23:12:00,41.0,34.7,30.27,North,360,0.0,3.0,78,0.00,,,0.00,Weather View 32 v70,2013-03-10 04:12:00,
2013-03-09 23:17:00,40.0,34.3,30.27,North,360,0.0,3.0,80,0.00,,,0.00,Weather View 32 v70,2013-03-10 04:17:00,
2013-03-09 23:22:00,40.0,34.3,30.27,North,360,0.0,3.0,80,0.00,,,0.00,Weather View 32 v70,2013-03-10 04:22:00,
2013-03-09 23:27:00,40.0,35.2,30.27,North,360,0.0,0.0,83,0.00,,,0.00,Weather View 32 v70,2013-03-10 04:27:00,
2013-03-09 23:32:00,40.0,35.6,30.27,North,360,0.0,0.0,84,0.00,,,0.00,Weather View 32 v70,2013-03-10 04:32:00,
2013-03-09 23:37:00,40.0,37.9,30.27,North,360,0.0,0.0,92,0.00,,,0.00,Weather View 32 v70,2013-03-10 04:37:00,
2013-03-09 23:42:00,39.0,37.1,30.27,North,360,0.0,0.0,93,0.00,,,0.00,Weather View 32 v70,2013-03-10 04:42:00,
2013-03-09 23:47:00,39.0,38.0,30.28,North,360,0.0,0.0,96,0.00,,,0.00,Weather View 32 v70,2013-03-10 04:47:00,
2013-03-09 23:52:00,39.0,38.0,30.28,North,360,0.0,0.0,96,0.00,,,0.00,Weather View 32 v70,2013-03-10 04:52:00,
2013-03-09 23:57:00,39.0,38.0,30.28,North,360,0.0,0.0,96,0.00,,,0.00,Weather View 32 v70,2013-03-10 04:57:00,